createdAt,value
2022-09-15T00:00:27.330Z,944.54
2022-09-15T00:01:27.367Z,944.56
2022-09-15T00:02:27.409Z,944.61
2022-09-15T00:03:27.284Z,944.64
2022-09-15T00:04:27.305Z,944.51
2022-09-15T00:05:27.264Z,944.57
2022-09-15T00:06:27.257Z,944.48
2022-09-15T00:07:27.246Z,944.49
2022-09-15T00:08:27.236Z,944.42
2022-09-15T00:09:27.223Z,944.48
2022-09-15T00:10:27.253Z,944.43
2022-09-15T00:11:27.209Z,944.42
2022-09-15T00:12:27.183Z,944.44
2022-09-15T00:13:27.185Z,944.46
2022-09-15T00:14:27.163Z,944.41
2022-09-15T00:15:27.165Z,944.44
2022-09-15T00:16:27.223Z,944.46
2022-09-15T00:17:27.142Z,944.42
2022-09-15T00:18:27.113Z,944.41
2022-09-15T00:19:27.104Z,944.44
2022-09-15T00:20:27.102Z,944.43
2022-09-15T00:21:27.075Z,944.45
2022-09-15T00:22:27.107Z,944.42
2022-09-15T00:23:27.062Z,944.42
2022-09-15T00:24:27.053Z,944.38
2022-09-15T00:25:27.041Z,944.35
2022-09-15T00:26:27.022Z,944.44
2022-09-15T00:27:27.023Z,944.37
2022-09-15T00:28:27.013Z,944.30
2022-09-15T00:29:26.991Z,944.37
2022-09-15T00:30:27.086Z,944.34
2022-09-15T00:31:27.024Z,944.32
2022-09-15T00:32:26.962Z,944.26
2022-09-15T00:33:26.950Z,944.39
2022-09-15T00:34:26.941Z,944.31
2022-09-15T00:35:26.922Z,944.32
2022-09-15T00:36:26.911Z,944.30
2022-09-15T00:37:26.921Z,944.30
2022-09-15T00:38:26.887Z,944.25
2022-09-15T00:39:26.902Z,944.23
2022-09-15T00:40:26.912Z,944.23
2022-09-15T00:41:26.860Z,944.22
2022-09-15T00:42:26.841Z,944.15
2022-09-15T00:43:26.831Z,944.12
2022-09-15T00:44:26.875Z,944.19
2022-09-15T00:45:26.895Z,944.13
2022-09-15T00:46:26.802Z,944.10
2022-09-15T00:47:26.781Z,944.08
2022-09-15T00:48:26.771Z,944.13
2022-09-15T00:49:26.793Z,944.11
2022-09-15T00:50:26.768Z,944.19
2022-09-15T00:51:26.770Z,944.14
2022-09-15T00:52:26.738Z,944.15
2022-09-15T00:53:26.721Z,944.10
2022-09-15T00:54:26.711Z,944.20
2022-09-15T00:55:26.743Z,944.16
2022-09-15T00:56:26.690Z,944.18
2022-09-15T00:57:26.691Z,944.26
2022-09-15T00:58:26.681Z,944.24
2022-09-15T00:59:26.661Z,944.22
2022-09-15T01:00:26.642Z,944.25
2022-09-15T01:01:26.730Z,944.24
2022-09-15T01:02:26.691Z,944.20
2022-09-15T01:03:26.658Z,944.22
2022-09-15T01:04:26.591Z,944.24
2022-09-15T01:05:26.600Z,944.19
2022-09-15T01:06:26.573Z,944.20
2022-09-15T01:07:26.563Z,944.23
2022-09-15T01:08:26.583Z,944.27
2022-09-15T01:09:26.537Z,944.26
2022-09-15T01:10:26.530Z,944.17
2022-09-15T01:11:26.518Z,944.23
2022-09-15T01:12:26.526Z,944.19
2022-09-15T01:13:26.499Z,944.23
2022-09-15T01:14:26.498Z,944.17
2022-09-15T01:15:26.478Z,944.15
2022-09-15T01:16:26.516Z,944.10
2022-09-15T01:17:26.453Z,944.09
2022-09-15T01:18:26.465Z,944.15
2022-09-15T01:19:26.445Z,944.11
2022-09-15T01:20:26.407Z,944.10
2022-09-15T01:21:26.409Z,944.08
2022-09-15T01:22:26.388Z,944.12
2022-09-15T01:23:26.387Z,944.17
2022-09-15T01:24:26.380Z,944.06
2022-09-15T01:25:26.375Z,944.10
2022-09-15T01:26:26.357Z,944.15
2022-09-15T01:27:41.590Z,944.10
2022-09-15T01:28:27.335Z,944.12
2022-09-15T01:29:26.324Z,944.10
2022-09-15T01:30:26.325Z,944.08
2022-09-15T01:31:26.363Z,944.10
2022-09-15T01:32:26.289Z,944.08
2022-09-15T01:33:26.275Z,944.13
2022-09-15T01:34:26.305Z,944.21
2022-09-15T01:35:26.266Z,944.11
2022-09-15T01:36:26.229Z,944.15
2022-09-15T01:37:26.228Z,944.18
2022-09-15T01:38:26.217Z,944.15
2022-09-15T01:39:26.209Z,944.16
2022-09-15T01:40:26.260Z,944.13
2022-09-15T01:41:26.189Z,944.12
2022-09-15T01:42:26.166Z,944.18
2022-09-15T01:43:26.159Z,944.13
2022-09-15T01:44:26.149Z,944.13
2022-09-15T01:45:26.160Z,944.13
2022-09-15T01:46:26.127Z,944.06
2022-09-15T01:47:26.117Z,944.16
2022-09-15T01:48:26.095Z,944.11
2022-09-15T01:49:26.090Z,944.17
2022-09-15T01:50:26.076Z,944.08
2022-09-15T01:51:26.076Z,944.16
2022-09-15T01:52:26.057Z,944.19
2022-09-15T01:53:26.079Z,944.09
2022-09-15T01:54:26.036Z,944.13
2022-09-15T01:55:26.056Z,944.08
2022-09-15T01:56:26.016Z,944.09
2022-09-15T01:57:26.006Z,944.15
2022-09-15T01:58:26.014Z,944.17
2022-09-15T01:59:25.986Z,944.05
2022-09-15T02:00:25.965Z,944.13
2022-09-15T02:01:26.017Z,944.12
2022-09-15T02:02:33.530Z,944.15
2022-09-15T02:03:25.932Z,944.12
2022-09-15T02:04:25.922Z,944.09
2022-09-15T02:05:25.912Z,944.10
2022-09-15T02:06:25.894Z,944.14
2022-09-15T02:07:25.894Z,944.11
2022-09-15T02:08:25.915Z,944.14
2022-09-15T02:09:25.861Z,944.14
2022-09-15T02:10:25.852Z,944.15
2022-09-15T02:11:25.869Z,944.10
2022-09-15T02:12:25.841Z,944.06
2022-09-15T02:13:25.835Z,944.12
2022-09-15T02:14:25.814Z,944.07
2022-09-15T02:15:25.822Z,944.04
2022-09-15T02:16:25.838Z,944.17
2022-09-15T02:17:25.801Z,944.03
2022-09-15T02:18:25.759Z,944.07
2022-09-15T02:19:25.764Z,944.05
2022-09-15T02:20:25.749Z,944.00
2022-09-15T02:21:25.733Z,944.00
2022-09-15T02:22:25.733Z,944.05
2022-09-15T02:23:25.711Z,944.04
2022-09-15T02:24:25.702Z,943.91
2022-09-15T02:25:25.683Z,944.04
2022-09-15T02:26:25.679Z,944.02
2022-09-15T02:27:25.661Z,944.02
2022-09-15T02:28:25.696Z,944.01
2022-09-15T02:29:25.642Z,943.96
2022-09-15T02:30:25.623Z,943.93
2022-09-15T02:31:25.696Z,943.95
2022-09-15T02:32:25.621Z,943.98
2022-09-15T02:33:25.602Z,943.92
2022-09-15T02:34:25.602Z,943.96
2022-09-15T02:35:25.572Z,944.05
2022-09-15T02:36:25.552Z,943.94
2022-09-15T02:37:25.544Z,943.96
2022-09-15T02:38:25.552Z,943.97
2022-09-15T02:39:25.540Z,943.99
2022-09-15T02:40:25.626Z,943.97
2022-09-15T02:41:25.524Z,943.99
2022-09-15T02:42:25.484Z,943.98
2022-09-15T02:43:25.502Z,944.05
2022-09-15T02:44:25.471Z,943.98
2022-09-15T02:45:25.531Z,944.02
2022-09-15T02:46:25.439Z,944.05
2022-09-15T02:47:25.445Z,944.01
2022-09-15T02:48:25.420Z,944.02
2022-09-15T02:49:25.483Z,944.02
2022-09-15T02:50:25.390Z,944.05
2022-09-15T02:51:25.390Z,944.04
2022-09-15T02:52:25.379Z,943.97
2022-09-15T02:53:25.370Z,943.99
2022-09-15T02:54:25.345Z,943.93
2022-09-15T02:55:25.340Z,943.98
2022-09-15T02:56:25.339Z,943.91
2022-09-15T02:57:25.348Z,943.98
2022-09-15T02:58:25.308Z,943.97
2022-09-15T02:59:25.299Z,944.01
2022-09-15T03:00:25.289Z,944.03
2022-09-15T03:01:25.299Z,944.10
2022-09-15T03:02:25.358Z,944.02
2022-09-15T03:03:25.249Z,944.08
2022-09-15T03:04:25.228Z,944.08
2022-09-15T03:05:25.229Z,943.93
2022-09-15T03:06:25.212Z,944.05
2022-09-15T03:07:25.209Z,943.95
2022-09-15T03:08:25.188Z,943.98
2022-09-15T03:09:25.188Z,943.98
2022-09-15T03:10:25.161Z,943.99
2022-09-15T03:11:25.191Z,944.01
2022-09-15T03:12:25.156Z,944.00
2022-09-15T03:13:25.137Z,944.01
2022-09-15T03:14:25.131Z,944.03
2022-09-15T03:15:25.107Z,944.05
2022-09-15T03:16:25.182Z,944.01
2022-09-15T03:17:25.130Z,944.01
2022-09-15T03:18:25.069Z,943.99
2022-09-15T03:19:25.076Z,943.98
2022-09-15T03:20:25.071Z,943.96
2022-09-15T03:21:25.038Z,943.97
2022-09-15T03:22:25.040Z,943.99
2022-09-15T03:23:25.019Z,943.97
2022-09-15T03:24:25.006Z,943.87
2022-09-15T03:25:25.028Z,944.04
2022-09-15T03:26:24.986Z,944.04
2022-09-15T03:27:24.994Z,944.05
2022-09-15T03:28:24.965Z,944.04
2022-09-15T03:29:24.947Z,944.08
2022-09-15T03:30:24.948Z,944.12
2022-09-15T03:31:25.002Z,944.05
2022-09-15T03:32:24.914Z,944.01
2022-09-15T03:33:24.905Z,943.98
2022-09-15T03:34:24.900Z,943.97
2022-09-15T03:35:24.887Z,944.00
2022-09-15T03:36:24.897Z,943.97
2022-09-15T03:37:24.875Z,943.89
2022-09-15T03:38:24.887Z,943.94
2022-09-15T03:39:24.835Z,943.92
2022-09-15T03:40:24.916Z,944.01
2022-09-15T03:41:24.822Z,943.87
2022-09-15T03:42:24.835Z,943.91
2022-09-15T03:43:24.792Z,943.99
2022-09-15T03:44:24.820Z,943.98
2022-09-15T03:45:24.814Z,943.99
2022-09-15T03:46:24.764Z,943.95
2022-09-15T03:47:24.743Z,943.96
2022-09-15T03:48:24.745Z,943.90
2022-09-15T03:49:24.716Z,943.93
2022-09-15T03:50:24.715Z,943.91
2022-09-15T03:51:24.733Z,943.87
2022-09-15T03:52:24.696Z,943.87
2022-09-15T03:53:24.679Z,943.92
2022-09-15T03:54:24.707Z,943.95
2022-09-15T03:55:24.656Z,943.94
2022-09-15T03:56:24.654Z,943.96
2022-09-15T03:57:24.644Z,943.91
2022-09-15T03:58:26.839Z,943.93
2022-09-15T03:59:25.620Z,943.99
2022-09-15T04:00:24.604Z,943.95
2022-09-15T04:01:24.585Z,944.06
2022-09-15T04:02:24.632Z,944.05
2022-09-15T04:03:24.601Z,944.05
2022-09-15T04:04:24.564Z,943.99
2022-09-15T04:05:24.553Z,943.93
2022-09-15T04:06:24.544Z,944.10
2022-09-15T04:07:24.523Z,944.02
2022-09-15T04:08:24.537Z,943.98
2022-09-15T04:09:24.510Z,943.92
2022-09-15T04:10:24.495Z,943.99
2022-09-15T04:11:24.474Z,944.07
2022-09-15T04:12:24.475Z,944.04
2022-09-15T04:13:28.463Z,943.99
2022-09-15T04:14:24.455Z,944.01
2022-09-15T04:15:24.426Z,943.98
2022-09-15T04:16:24.544Z,943.99
2022-09-15T04:17:24.464Z,944.02
2022-09-15T04:18:24.399Z,944.06
2022-09-15T04:19:24.392Z,944.06
2022-09-15T04:20:24.383Z,943.99
2022-09-15T04:21:24.430Z,944.05
2022-09-15T04:22:24.355Z,943.93
2022-09-15T04:23:24.336Z,943.96
2022-09-15T04:24:24.352Z,943.91
2022-09-15T04:25:24.321Z,943.96
2022-09-15T04:26:24.313Z,944.02
2022-09-15T04:27:24.297Z,943.96
2022-09-15T04:28:24.291Z,943.94
2022-09-15T04:29:24.271Z,943.97
2022-09-15T04:30:24.274Z,944.01
2022-09-15T04:31:24.320Z,943.93
2022-09-15T04:32:24.245Z,943.80
2022-09-15T04:33:24.239Z,943.93
2022-09-15T04:34:24.213Z,943.84
2022-09-15T04:35:24.248Z,943.83
2022-09-15T04:36:24.192Z,943.94
2022-09-15T04:37:24.185Z,943.85
2022-09-15T04:38:24.172Z,943.78
2022-09-15T04:39:24.176Z,943.85
2022-09-15T04:40:24.272Z,943.86
2022-09-15T04:41:24.151Z,943.81
2022-09-15T04:42:24.122Z,943.83
2022-09-15T04:43:24.113Z,943.82
2022-09-15T04:44:24.130Z,943.76
2022-09-15T04:45:24.091Z,943.80
2022-09-15T04:46:24.146Z,943.77
2022-09-15T04:47:24.090Z,943.70
2022-09-15T04:48:24.055Z,943.74
2022-09-15T04:49:24.040Z,943.76
2022-09-15T04:50:24.060Z,943.75
2022-09-15T04:51:24.018Z,943.72
2022-09-15T04:52:24.010Z,943.75
2022-09-15T04:53:24.009Z,943.74
2022-09-15T04:54:24.031Z,943.74
2022-09-15T04:55:23.971Z,943.78
2022-09-15T04:56:23.972Z,943.75
2022-09-15T04:57:23.954Z,943.69
2022-09-15T04:58:23.951Z,943.71
2022-09-15T04:59:23.929Z,943.76
2022-09-15T05:00:23.930Z,943.76
2022-09-15T05:01:24.013Z,943.81
2022-09-15T05:02:23.955Z,943.77
2022-09-15T05:03:23.887Z,943.72
2022-09-15T05:04:23.908Z,943.71
2022-09-15T05:05:23.877Z,943.66
2022-09-15T05:06:23.848Z,943.78
2022-09-15T05:07:23.869Z,943.76
2022-09-15T05:08:23.840Z,943.82
2022-09-15T05:09:23.828Z,943.79
2022-09-15T05:10:23.822Z,943.75
2022-09-15T05:11:23.800Z,943.80
2022-09-15T05:12:23.778Z,943.80
2022-09-15T05:13:23.780Z,943.83
2022-09-15T05:14:23.778Z,943.78
2022-09-15T05:15:23.769Z,943.85
2022-09-15T05:16:23.860Z,943.78
2022-09-15T05:17:26.683Z,943.89
2022-09-15T05:18:23.718Z,943.87
2022-09-15T05:19:23.737Z,943.82
2022-09-15T05:20:23.689Z,943.86
2022-09-15T05:21:23.699Z,943.88
2022-09-15T05:22:23.667Z,943.88
2022-09-15T05:23:23.678Z,943.81
2022-09-15T05:24:23.661Z,943.86
2022-09-15T05:25:23.638Z,943.88
2022-09-15T05:26:23.655Z,943.91
2022-09-15T05:27:23.619Z,943.96
2022-09-15T05:28:23.608Z,943.86
2022-09-15T05:29:23.606Z,943.90
2022-09-15T05:30:37.864Z,943.90
2022-09-15T05:31:24.636Z,943.87
2022-09-15T05:32:23.558Z,943.93
2022-09-15T05:33:23.556Z,943.89
2022-09-15T05:34:23.535Z,943.87
2022-09-15T05:35:23.526Z,943.88
2022-09-15T05:36:23.506Z,943.91
2022-09-15T05:37:23.569Z,943.85
2022-09-15T05:38:23.495Z,943.86
2022-09-15T05:39:23.487Z,943.85
2022-09-15T05:40:23.592Z,943.85
2022-09-15T05:41:23.485Z,943.85
2022-09-15T05:42:23.445Z,943.86
2022-09-15T05:43:23.456Z,943.84
2022-09-15T05:44:23.425Z,943.85
2022-09-15T05:45:23.445Z,943.85
2022-09-15T05:46:23.460Z,943.88
2022-09-15T05:47:23.396Z,943.85
2022-09-15T05:48:23.384Z,943.97
2022-09-15T05:49:23.366Z,943.89
2022-09-15T05:50:23.355Z,943.86
2022-09-15T05:51:23.356Z,943.98
2022-09-15T05:52:23.346Z,943.93
2022-09-15T05:53:23.401Z,943.94
2022-09-15T05:54:23.317Z,943.96
2022-09-15T05:55:23.336Z,944.03
2022-09-15T05:56:23.337Z,943.93
2022-09-15T05:57:23.284Z,943.90
2022-09-15T05:58:23.274Z,943.89
2022-09-15T05:59:23.370Z,944.00
2022-09-15T06:00:23.245Z,943.98
2022-09-15T06:01:23.357Z,943.97
2022-09-15T06:02:23.261Z,943.99
2022-09-15T06:03:24.491Z,943.96
2022-09-15T06:04:23.193Z,943.94
2022-09-15T06:05:23.224Z,943.96
2022-09-15T06:06:23.232Z,944.00
2022-09-15T06:07:23.165Z,943.98
2022-09-15T06:08:23.167Z,944.11
2022-09-15T06:09:23.174Z,944.04
2022-09-15T06:10:23.133Z,944.09
2022-09-15T06:11:23.116Z,944.10
2022-09-15T06:12:23.112Z,944.09
2022-09-15T06:13:23.111Z,944.17
2022-09-15T06:14:23.094Z,944.16
2022-09-15T06:15:23.117Z,944.16
2022-09-15T06:16:23.138Z,944.17
2022-09-15T06:17:23.068Z,944.13
2022-09-15T06:18:23.045Z,944.21
2022-09-15T06:19:23.042Z,944.20
2022-09-15T06:20:23.065Z,944.21
2022-09-15T06:21:23.014Z,944.19
2022-09-15T06:22:22.993Z,944.15
2022-09-15T06:23:22.992Z,944.11
2022-09-15T06:24:22.971Z,944.18
2022-09-15T06:25:22.980Z,944.23
2022-09-15T06:26:22.963Z,944.14
2022-09-15T06:27:22.933Z,944.16
2022-09-15T06:28:22.927Z,944.27
2022-09-15T06:29:22.917Z,944.28
2022-09-15T06:30:22.902Z,944.20
2022-09-15T06:31:22.975Z,944.30
2022-09-15T06:32:22.872Z,944.40
2022-09-15T06:33:22.867Z,944.27
2022-09-15T06:34:22.862Z,944.27
2022-09-15T06:35:22.851Z,944.33
2022-09-15T06:36:22.831Z,944.27
2022-09-15T06:37:22.852Z,944.25
2022-09-15T06:38:22.851Z,944.23
2022-09-15T06:39:22.802Z,944.29
2022-09-15T06:40:22.846Z,944.25
2022-09-15T06:41:22.770Z,944.24
2022-09-15T06:42:22.770Z,944.22
2022-09-15T06:43:22.752Z,944.32
2022-09-15T06:44:22.760Z,944.35
2022-09-15T06:45:22.720Z,944.27
2022-09-15T06:46:22.749Z,944.24
2022-09-15T06:47:22.709Z,944.24
2022-09-15T06:48:25.153Z,944.31
2022-09-15T06:49:22.712Z,944.24
2022-09-15T06:50:22.691Z,944.21
2022-09-15T06:51:22.660Z,944.30
2022-09-15T06:52:22.650Z,944.22
2022-09-15T06:53:22.643Z,944.20
2022-09-15T06:54:22.629Z,944.24
2022-09-15T06:55:22.620Z,944.21
2022-09-15T06:56:22.598Z,944.27
2022-09-15T06:57:22.597Z,944.28
2022-09-15T06:58:22.569Z,944.25
2022-09-15T06:59:22.592Z,944.21
2022-09-15T07:00:22.570Z,944.29
2022-09-15T07:01:22.588Z,944.28
2022-09-15T07:02:22.698Z,944.24
2022-09-15T07:03:22.647Z,944.36
2022-09-15T07:04:22.508Z,944.38
2022-09-15T07:05:22.641Z,944.41
2022-09-15T07:06:22.487Z,944.39
2022-09-15T07:07:22.484Z,944.40
2022-09-15T07:08:22.480Z,944.46
2022-09-15T07:09:22.448Z,944.49
2022-09-15T07:10:22.438Z,944.40
2022-09-15T07:11:22.439Z,944.42
2022-09-15T07:12:22.418Z,944.42
2022-09-15T07:13:22.413Z,944.47
2022-09-15T07:14:22.407Z,944.46
2022-09-15T07:15:22.398Z,944.52
2022-09-15T07:16:22.414Z,944.59
2022-09-15T07:17:22.369Z,944.49
2022-09-15T07:18:22.358Z,944.53
2022-09-15T07:19:22.374Z,944.52
2022-09-15T07:20:22.327Z,944.35
2022-09-15T07:21:22.347Z,944.52
2022-09-15T07:22:22.410Z,944.54
2022-09-15T07:23:22.288Z,944.55
2022-09-15T07:24:22.288Z,944.63
2022-09-15T07:25:22.286Z,944.59
2022-09-15T07:26:22.264Z,944.61
2022-09-15T07:27:22.268Z,944.57
2022-09-15T07:28:22.253Z,944.62
2022-09-15T07:29:22.227Z,944.62
2022-09-15T07:30:22.215Z,944.49
2022-09-15T07:31:22.248Z,944.52
2022-09-15T07:32:22.217Z,944.55
2022-09-15T07:33:22.176Z,944.54
2022-09-15T07:34:22.177Z,944.59
2022-09-15T07:35:22.158Z,944.53
2022-09-15T07:36:22.146Z,944.54
2022-09-15T07:37:22.136Z,944.53
2022-09-15T07:38:22.145Z,944.46
2022-09-15T07:39:22.105Z,944.55
2022-09-15T07:40:22.151Z,944.55
2022-09-15T07:41:22.075Z,944.52
2022-09-15T07:42:22.076Z,944.51
2022-09-15T07:43:22.065Z,944.56
2022-09-15T07:44:30.319Z,944.53
2022-09-15T07:45:22.057Z,944.53
2022-09-15T07:46:22.044Z,944.54
2022-09-15T07:47:22.018Z,944.52
2022-09-15T07:48:26.237Z,944.55
2022-09-15T07:49:22.008Z,944.56
2022-09-15T07:50:21.988Z,944.56
2022-09-15T07:51:21.977Z,944.41
2022-09-15T07:52:21.979Z,944.51
2022-09-15T07:53:21.949Z,944.57
2022-09-15T07:54:23.057Z,944.49
2022-09-15T07:55:21.950Z,944.52
2022-09-15T07:56:21.915Z,944.44
2022-09-15T07:57:21.907Z,944.48
2022-09-15T07:58:21.908Z,944.47
2022-09-15T07:59:21.887Z,944.44
2022-09-15T08:00:21.945Z,944.40
2022-09-15T08:01:21.929Z,944.44
2022-09-15T08:02:21.910Z,944.40
2022-09-15T08:03:21.849Z,944.41
2022-09-15T08:04:21.856Z,944.44
2022-09-15T08:05:22.808Z,944.53
2022-09-15T08:06:21.820Z,944.42
2022-09-15T08:07:21.807Z,944.40
2022-09-15T08:08:21.781Z,944.44
2022-09-15T08:09:21.855Z,944.40
2022-09-15T08:10:21.803Z,944.53
2022-09-15T08:11:21.779Z,944.48
2022-09-15T08:12:21.736Z,944.44
2022-09-15T08:13:21.724Z,944.58
2022-09-15T08:14:21.719Z,944.52
2022-09-15T08:15:21.705Z,944.49
2022-09-15T08:16:21.776Z,944.60
2022-09-15T08:17:21.690Z,944.53
2022-09-15T08:18:21.671Z,944.56
2022-09-15T08:19:21.667Z,944.66
2022-09-15T08:20:21.722Z,944.67
2022-09-15T08:21:21.658Z,944.60
2022-09-15T08:22:21.636Z,944.62
2022-09-15T08:23:21.607Z,944.58
2022-09-15T08:24:21.596Z,944.67
2022-09-15T08:25:21.593Z,944.58
2022-09-15T08:26:21.591Z,944.60
2022-09-15T08:27:21.565Z,944.55
2022-09-15T08:28:21.587Z,944.64
2022-09-15T08:29:21.535Z,944.57
2022-09-15T08:30:21.541Z,944.52
2022-09-15T08:31:21.608Z,944.52
2022-09-15T08:32:21.519Z,944.56
2022-09-15T08:33:21.512Z,944.64
2022-09-15T08:34:21.554Z,944.58
2022-09-15T08:35:21.476Z,944.59
2022-09-15T08:36:21.456Z,944.61
2022-09-15T08:37:21.475Z,944.59
2022-09-15T08:38:21.439Z,944.56
2022-09-15T08:39:21.424Z,944.57
2022-09-15T08:40:21.467Z,944.52
2022-09-15T08:41:21.397Z,944.57
2022-09-15T08:42:21.385Z,944.54
2022-09-15T08:43:21.393Z,944.56
2022-09-15T08:44:21.373Z,944.53
2022-09-15T08:45:21.354Z,944.61
2022-09-15T08:46:21.381Z,944.67
2022-09-15T08:47:21.323Z,944.60
2022-09-15T08:48:21.324Z,944.53
2022-09-15T08:49:40.946Z,944.64
2022-09-15T08:50:22.302Z,944.62
2022-09-15T08:51:21.355Z,944.54
2022-09-15T08:52:21.264Z,944.64
2022-09-15T08:53:21.273Z,944.55
2022-09-15T08:54:21.247Z,944.64
2022-09-15T08:55:21.234Z,944.56
2022-09-15T08:56:21.224Z,944.59
2022-09-15T08:57:21.213Z,944.56
2022-09-15T08:58:21.216Z,944.55
2022-09-15T08:59:21.183Z,944.58
2022-09-15T09:00:21.175Z,944.56
2022-09-15T09:01:21.251Z,944.61
2022-09-15T09:02:21.208Z,944.56
2022-09-15T09:03:21.143Z,944.48
2022-09-15T09:04:21.145Z,944.52
2022-09-15T09:05:21.113Z,944.58
2022-09-15T09:06:21.103Z,944.53
2022-09-15T09:07:21.095Z,944.53
2022-09-15T09:08:21.113Z,944.54
2022-09-15T09:09:21.076Z,944.52
2022-09-15T09:10:21.074Z,944.44
2022-09-15T09:11:21.047Z,944.53
2022-09-15T09:12:21.048Z,944.46
2022-09-15T09:13:21.035Z,944.41
2022-09-15T09:14:21.097Z,944.55
2022-09-15T09:15:21.004Z,944.40
2022-09-15T09:16:21.056Z,944.53
2022-09-15T09:17:21.017Z,944.46
2022-09-15T09:18:20.989Z,944.41
2022-09-15T09:19:20.973Z,944.40
2022-09-15T09:20:20.962Z,944.51
2022-09-15T09:21:20.967Z,944.50
2022-09-15T09:22:20.931Z,944.55
2022-09-15T09:23:20.923Z,944.47
2022-09-15T09:24:20.901Z,944.57
2022-09-15T09:25:27.605Z,944.55
2022-09-15T09:26:21.882Z,944.54
2022-09-15T09:27:20.869Z,944.47
2022-09-15T09:28:20.860Z,944.53
2022-09-15T09:29:20.932Z,944.55
2022-09-15T09:30:20.842Z,944.44
2022-09-15T09:31:20.859Z,944.49
2022-09-15T09:32:21.836Z,944.51
2022-09-15T09:33:20.793Z,944.54
2022-09-15T09:34:20.790Z,944.39
2022-09-15T09:35:20.791Z,944.48
2022-09-15T09:36:20.762Z,944.47
2022-09-15T09:37:20.762Z,944.46
2022-09-15T09:38:20.751Z,944.39
2022-09-15T09:39:20.730Z,944.50
2022-09-15T09:40:20.828Z,944.50
2022-09-15T09:41:20.701Z,944.47
2022-09-15T09:42:20.704Z,944.42
2022-09-15T09:43:20.689Z,944.46
2022-09-15T09:44:20.734Z,944.48
2022-09-15T09:45:20.661Z,944.49
2022-09-15T09:46:20.708Z,944.57
2022-09-15T09:47:20.675Z,944.63
2022-09-15T09:48:20.632Z,944.47
2022-09-15T09:49:20.633Z,944.40
2022-09-15T09:50:20.621Z,944.42
2022-09-15T09:51:20.643Z,944.31
2022-09-15T09:52:22.060Z,944.38
2022-09-15T09:53:20.575Z,944.49
2022-09-15T09:54:20.562Z,944.48
2022-09-15T09:55:20.557Z,944.48
2022-09-15T09:56:20.548Z,944.45
2022-09-15T09:57:20.522Z,944.51
2022-09-15T09:58:20.538Z,944.52
2022-09-15T09:59:20.501Z,944.48
2022-09-15T10:00:20.491Z,944.47
2022-09-15T10:01:20.584Z,944.50
2022-09-15T10:02:20.494Z,944.50
2022-09-15T10:03:20.479Z,944.43
2022-09-15T10:04:20.537Z,944.49
2022-09-15T10:05:20.439Z,944.47
2022-09-15T10:06:20.456Z,944.58
2022-09-15T10:07:20.409Z,944.56
2022-09-15T10:08:20.416Z,944.47
2022-09-15T10:09:20.410Z,944.45
2022-09-15T10:10:20.385Z,944.47
2022-09-15T10:11:20.366Z,944.50
2022-09-15T10:12:20.361Z,944.46
2022-09-15T10:13:20.351Z,944.53
2022-09-15T10:14:20.340Z,944.48
2022-09-15T10:15:20.330Z,944.61
2022-09-15T10:16:20.359Z,944.53
2022-09-15T10:17:20.300Z,944.48
2022-09-15T10:18:20.289Z,944.55
2022-09-15T10:19:20.286Z,944.53
2022-09-15T10:20:20.346Z,944.54
2022-09-15T10:21:20.255Z,944.59
2022-09-15T10:22:20.250Z,944.58
2022-09-15T10:23:20.268Z,944.57
2022-09-15T10:24:20.231Z,944.52
2022-09-15T10:25:20.209Z,944.59
2022-09-15T10:26:20.208Z,944.47
2022-09-15T10:27:20.177Z,944.42
2022-09-15T10:28:20.209Z,944.60
2022-09-15T10:29:20.178Z,944.43
2022-09-15T10:30:20.166Z,944.49
2022-09-15T10:31:20.198Z,944.40
2022-09-15T10:32:24.843Z,944.43
2022-09-15T10:33:21.121Z,944.41
2022-09-15T10:34:20.108Z,944.34
2022-09-15T10:35:20.102Z,944.47
2022-09-15T10:36:20.113Z,944.55
2022-09-15T10:37:20.081Z,944.45
2022-09-15T10:38:20.059Z,944.52
2022-09-15T10:39:20.050Z,944.56
2022-09-15T10:40:20.218Z,944.51
2022-09-15T10:41:20.048Z,944.62
2022-09-15T10:42:20.019Z,944.48
2022-09-15T10:43:20.009Z,944.51
2022-09-15T10:44:19.989Z,944.57
2022-09-15T10:45:20.017Z,944.53
2022-09-15T10:46:20.049Z,944.55
2022-09-15T10:47:19.970Z,944.54
2022-09-15T10:48:19.968Z,944.60
2022-09-15T10:49:19.948Z,944.54
2022-09-15T10:50:19.928Z,944.57
2022-09-15T10:51:19.917Z,944.52
2022-09-15T10:52:19.919Z,944.55
2022-09-15T10:53:19.899Z,944.51
2022-09-15T10:54:19.919Z,944.55
2022-09-15T10:55:27.766Z,944.51
2022-09-15T10:56:20.857Z,944.41
2022-09-15T10:57:19.912Z,944.43
2022-09-15T10:58:19.842Z,944.49
2022-09-15T10:59:19.822Z,944.42
2022-09-15T11:00:19.806Z,944.45
2022-09-15T11:01:19.853Z,944.46
2022-09-15T11:02:19.868Z,944.40
2022-09-15T11:03:19.786Z,944.42
2022-09-15T11:04:19.767Z,944.39
2022-09-15T11:05:22.615Z,944.44
2022-09-15T11:06:19.745Z,944.40
2022-09-15T11:07:19.751Z,944.39
2022-09-15T11:08:19.716Z,944.34
2022-09-15T11:09:19.716Z,944.26
2022-09-15T11:10:19.712Z,944.34
2022-09-15T11:11:19.687Z,944.35
2022-09-15T11:12:19.687Z,944.34
2022-09-15T11:13:19.677Z,944.28
2022-09-15T11:14:19.663Z,944.31
2022-09-15T11:15:19.647Z,944.37
2022-09-15T11:16:19.678Z,944.30
2022-09-15T11:17:19.623Z,944.26
2022-09-15T11:18:19.618Z,944.32
2022-09-15T11:19:19.597Z,944.30
2022-09-15T11:20:19.595Z,944.33
2022-09-15T11:21:19.576Z,944.30
2022-09-15T11:22:19.575Z,944.33
2022-09-15T11:23:19.576Z,944.33
2022-09-15T11:24:19.538Z,944.24
2022-09-15T11:25:19.533Z,944.37
2022-09-15T11:26:19.534Z,944.35
2022-09-15T11:27:19.516Z,944.24
2022-09-15T11:28:19.520Z,944.30
2022-09-15T11:29:19.476Z,944.30
2022-09-15T11:30:19.502Z,944.29
2022-09-15T11:31:19.538Z,944.41
2022-09-15T11:32:19.486Z,944.32
2022-09-15T11:33:19.456Z,944.35
2022-09-15T11:34:19.426Z,944.32
2022-09-15T11:35:19.415Z,944.31
2022-09-15T11:36:19.406Z,944.28
2022-09-15T11:37:19.406Z,944.31
2022-09-15T11:38:19.389Z,944.29
2022-09-15T11:39:19.369Z,944.33
2022-09-15T11:40:19.450Z,944.24
2022-09-15T11:41:19.344Z,944.27
2022-09-15T11:42:19.435Z,944.32
2022-09-15T11:43:19.336Z,944.30
2022-09-15T11:44:19.315Z,944.36
2022-09-15T11:45:19.320Z,944.31
2022-09-15T11:46:19.354Z,944.37
2022-09-15T11:47:19.286Z,944.39
2022-09-15T11:48:19.265Z,944.31
2022-09-15T11:49:19.253Z,944.36
2022-09-15T11:50:19.244Z,944.30
2022-09-15T11:51:19.235Z,944.36
2022-09-15T11:52:19.238Z,944.44
2022-09-15T11:53:19.204Z,944.44
2022-09-15T11:54:19.224Z,944.50
2022-09-15T11:55:19.199Z,944.62
2022-09-15T11:56:19.175Z,944.55
2022-09-15T11:57:19.221Z,944.65
2022-09-15T11:58:22.091Z,944.54
2022-09-15T11:59:19.137Z,944.59
2022-09-15T12:00:19.192Z,944.50
2022-09-15T12:01:19.114Z,944.52
2022-09-15T12:02:19.250Z,944.51
2022-09-15T12:03:19.170Z,944.50
2022-09-15T12:04:19.094Z,944.41
2022-09-15T12:05:19.529Z,944.47
2022-09-15T12:06:19.063Z,944.41
2022-09-15T12:07:19.046Z,944.39
2022-09-15T12:08:19.054Z,944.38
2022-09-15T12:09:19.023Z,944.37
2022-09-15T12:10:19.027Z,944.29
2022-09-15T12:11:19.013Z,944.34
2022-09-15T12:12:19.041Z,944.25
2022-09-15T12:13:18.996Z,944.31
2022-09-15T12:14:18.977Z,944.29
2022-09-15T12:15:18.964Z,944.16
2022-09-15T12:16:18.970Z,944.33
2022-09-15T12:17:18.934Z,944.31
2022-09-15T12:18:37.155Z,944.30
2022-09-15T12:19:19.916Z,944.23
2022-09-15T12:20:18.902Z,944.21
2022-09-15T12:21:18.892Z,944.31
2022-09-15T12:22:18.881Z,944.27
2022-09-15T12:23:18.863Z,944.20
2022-09-15T12:24:18.874Z,944.35
2022-09-15T12:25:18.843Z,944.36
2022-09-15T12:26:18.835Z,944.30
2022-09-15T12:27:18.815Z,944.21
2022-09-15T12:28:18.866Z,944.26